sensor_id;sensor_type;location;lat;lon;timestamp;pressure;altitude;pressure_sealevel;temperature;humidity
21395;BME280;10858;42.714;23.180;2023-02-26T00:01:25;93195.97;;;14.07;50.37
21395;BME280;10858;42.714;23.180;2023-02-26T00:03:53;93196.72;;;14.01;50.73
21395;BME280;10858;42.714;23.180;2023-02-26T00:06:20;93200.56;;;13.84;50.51
21395;BME280;10858;42.714;23.180;2023-02-26T00:08:46;93199.53;;;13.99;50.51
21395;BME280;10858;42.714;23.180;2023-02-26T00:11:13;93195.34;;;14.05;50.19
21395;BME280;10858;42.714;23.180;2023-02-26T00:13:41;93185.84;;;13.88;50.92
21395;BME280;10858;42.714;23.180;2023-02-26T00:18:49;93186.78;;;13.95;51.02
21395;BME280;10858;42.714;23.180;2023-02-26T00:21:20;93178.59;;;13.96;51.02
21395;BME280;10858;42.714;23.180;2023-02-26T00:23:47;93172.44;;;13.81;51.37
21395;BME280;10858;42.714;23.180;2023-02-26T00:26:13;93161.97;;;13.80;51.50
21395;BME280;10858;42.714;23.180;2023-02-26T00:28:40;93163.25;;;13.84;51.33
21395;BME280;10858;42.714;23.180;2023-02-26T00:31:07;93155.00;;;13.79;51.63
21395;BME280;10858;42.714;23.180;2023-02-26T00:33:34;93157.00;;;13.77;51.67
21395;BME280;10858;42.714;23.180;2023-02-26T00:38:42;93141.38;;;13.74;51.33
21395;BME280;10858;42.714;23.180;2023-02-26T00:41:11;93151.69;;;13.77;51.46
21395;BME280;10858;42.714;23.180;2023-02-26T00:43:37;93153.72;;;13.75;51.32
21395;BME280;10858;42.714;23.180;2023-02-26T00:46:33;93145.81;;;13.67;51.26
21395;BME280;10858;42.714;23.180;2023-02-26T00:49:39;93152.41;;;13.71;50.94
21395;BME280;10858;42.714;23.180;2023-02-26T00:52:14;93133.84;;;13.62;51.48
21395;BME280;10858;42.714;23.180;2023-02-26T00:54:44;93144.53;;;13.62;51.12
21395;BME280;10858;42.714;23.180;2023-02-26T00:57:10;93127.06;;;13.75;50.72
21395;BME280;10858;42.714;23.180;2023-02-26T00:59:36;93144.59;;;13.84;50.82
21395;BME280;10858;42.714;23.180;2023-02-26T01:02:02;93137.16;;;13.64;50.88
21395;BME280;10858;42.714;23.180;2023-02-26T01:04:29;93131.19;;;13.62;50.72
21395;BME280;10858;42.714;23.180;2023-02-26T01:06:56;93137.88;;;13.73;50.36
21395;BME280;10858;42.714;23.180;2023-02-26T01:09:26;93129.44;;;13.70;50.04
21395;BME280;10858;42.714;23.180;2023-02-26T01:11:54;93130.72;;;13.74;49.65
21395;BME280;10858;42.714;23.180;2023-02-26T01:14:21;93117.13;;;13.69;49.62
21395;BME280;10858;42.714;23.180;2023-02-26T01:22:42;93124.09;;;13.70;49.55
21395;BME280;10858;42.714;23.180;2023-02-26T01:25:17;93124.84;;;13.78;49.64
21395;BME280;10858;42.714;23.180;2023-02-26T01:27:46;93124.28;;;13.68;49.68
21395;BME280;10858;42.714;23.180;2023-02-26T01:30:13;93116.19;;;13.61;49.53
21395;BME280;10858;42.714;23.180;2023-02-26T01:38:12;93104.81;;;13.68;48.99
21395;BME280;10858;42.714;23.180;2023-02-26T01:43:45;93104.50;;;13.77;48.34
21395;BME280;10858;42.714;23.180;2023-02-26T01:48:57;93087.34;;;13.80;48.06
21395;BME280;10858;42.714;23.180;2023-02-26T01:51:48;93092.13;;;13.70;47.89
21395;BME280;10858;42.714;23.180;2023-02-26T01:54:18;93093.69;;;13.79;47.96
21395;BME280;10858;42.714;23.180;2023-02-26T01:56:48;93072.38;;;13.79;47.87
21395;BME280;10858;42.714;23.180;2023-02-26T01:59:17;93071.25;;;13.73;47.82
21395;BME280;10858;42.714;23.180;2023-02-26T02:01:50;93069.22;;;13.75;47.49
21395;BME280;10858;42.714;23.180;2023-02-26T02:04:17;93065.47;;;13.70;47.68
21395;BME280;10858;42.714;23.180;2023-02-26T02:06:45;93059.59;;;13.74;47.63
21395;BME280;10858;42.714;23.180;2023-02-26T02:09:12;93065.38;;;13.63;47.91
21395;BME280;10858;42.714;23.180;2023-02-26T02:11:56;93050.31;;;13.85;47.51
21395;BME280;10858;42.714;23.180;2023-02-26T02:17:13;93054.81;;;13.70;47.45
21395;BME280;10858;42.714;23.180;2023-02-26T02:27:40;93037.41;;;13.52;48.32
21395;BME280;10858;42.714;23.180;2023-02-26T02:33:02;93033.81;;;13.45;48.10
21395;BME280;10858;42.714;23.180;2023-02-26T02:35:40;93041.06;;;13.51;48.03
21395;BME280;10858;42.714;23.180;2023-02-26T02:38:20;93042.72;;;13.52;47.91
21395;BME280;10858;42.714;23.180;2023-02-26T02:40:57;93028.22;;;13.40;47.72
21395;BME280;10858;42.714;23.180;2023-02-26T02:43:30;93039.78;;;13.47;46.84
21395;BME280;10858;42.714;23.180;2023-02-26T02:46:32;93039.03;;;13.53;46.80
21395;BME280;10858;42.714;23.180;2023-02-26T02:48:59;93036.38;;;13.53;47.07
21395;BME280;10858;42.714;23.180;2023-02-26T02:51:32;93054.47;;;13.43;47.17
21395;BME280;10858;42.714;23.180;2023-02-26T02:56:46;93060.34;;;13.53;46.56
21395;BME280;10858;42.714;23.180;2023-02-26T02:59:44;93061.91;;;13.48;46.41
21395;BME280;10858;42.714;23.180;2023-02-26T03:05:12;93069.06;;;13.62;45.83
21395;BME280;10858;42.714;23.180;2023-02-26T03:07:52;93066.31;;;13.55;45.79
21395;BME280;10858;42.714;23.180;2023-02-26T03:10:19;93070.66;;;13.56;45.33
21395;BME280;10858;42.714;23.180;2023-02-26T03:12:45;93061.34;;;13.67;44.91
21395;BME280;10858;42.714;23.180;2023-02-26T03:15:13;93049.59;;;13.61;44.44
21395;BME280;10858;42.714;23.180;2023-02-26T03:20:33;93062.72;;;13.63;44.01
21395;BME280;10858;42.714;23.180;2023-02-26T03:23:23;93049.22;;;13.64;44.23
21395;BME280;10858;42.714;23.180;2023-02-26T03:25:54;93058.41;;;13.77;44.16
21395;BME280;10858;42.714;23.180;2023-02-26T03:28:44;93058.50;;;13.69;44.56
21395;BME280;10858;42.714;23.180;2023-02-26T03:36:39;93051.50;;;13.68;44.50
21395;BME280;10858;42.714;23.180;2023-02-26T03:45:02;93031.13;;;13.75;43.83
21395;BME280;10858;42.714;23.180;2023-02-26T03:47:31;93040.75;;;13.61;44.21
21395;BME280;10858;42.714;23.180;2023-02-26T03:50:01;93053.44;;;13.74;43.52
21395;BME280;10858;42.714;23.180;2023-02-26T03:52:30;93037.88;;;13.77;43.39
21395;BME280;10858;42.714;23.180;2023-02-26T03:55:02;93061.59;;;13.87;43.53
21395;BME280;10858;42.714;23.180;2023-02-26T03:57:29;93048.00;;;13.82;43.84
21395;BME280;10858;42.714;23.180;2023-02-26T03:59:56;93062.88;;;13.91;43.90
21395;BME280;10858;42.714;23.180;2023-02-26T04:02:31;93073.78;;;13.96;43.89
21395;BME280;10858;42.714;23.180;2023-02-26T04:05:07;93051.50;;;13.68;44.29
21395;BME280;10858;42.714;23.180;2023-02-26T04:07:37;93062.81;;;13.70;44.74
21395;BME280;10858;42.714;23.180;2023-02-26T04:10:04;93067.94;;;13.86;44.93
21395;BME280;10858;42.714;23.180;2023-02-26T04:12:31;93055.78;;;13.83;44.84
21395;BME280;10858;42.714;23.180;2023-02-26T04:15:00;93049.94;;;13.73;45.26
21395;BME280;10858;42.714;23.180;2023-02-26T04:17:26;93045.63;;;13.72;45.63
21395;BME280;10858;42.714;23.180;2023-02-26T04:19:52;93033.41;;;13.63;45.58
21395;BME280;10858;42.714;23.180;2023-02-26T04:22:18;93033.59;;;13.61;46.18
21395;BME280;10858;42.714;23.180;2023-02-26T04:24:45;93033.69;;;13.68;46.08
21395;BME280;10858;42.714;23.180;2023-02-26T04:27:11;93016.53;;;13.56;45.85
21395;BME280;10858;42.714;23.180;2023-02-26T04:29:37;93019.53;;;13.68;46.38
21395;BME280;10858;42.714;23.180;2023-02-26T04:32:04;93006.50;;;13.58;46.53
21395;BME280;10858;42.714;23.180;2023-02-26T04:34:30;93012.94;;;13.63;46.60
21395;BME280;10858;42.714;23.180;2023-02-26T04:36:56;93004.69;;;13.58;46.55
21395;BME280;10858;42.714;23.180;2023-02-26T04:39:23;93027.53;;;13.53;46.13
21395;BME280;10858;42.714;23.180;2023-02-26T04:41:50;93014.28;;;13.74;46.05
21395;BME280;10858;42.714;23.180;2023-02-26T04:44:16;93024.22;;;13.65;46.28
21395;BME280;10858;42.714;23.180;2023-02-26T04:46:42;92997.88;;;13.56;46.23
21395;BME280;10858;42.714;23.180;2023-02-26T04:49:08;93010.78;;;13.74;45.80
21395;BME280;10858;42.714;23.180;2023-02-26T04:51:34;93015.97;;;13.60;46.03
21395;BME280;10858;42.714;23.180;2023-02-26T04:54:00;93000.53;;;13.71;45.59
21395;BME280;10858;42.714;23.180;2023-02-26T04:56:27;92991.69;;;13.70;45.27
21395;BME280;10858;42.714;23.180;2023-02-26T04:58:53;92997.03;;;13.70;44.95
21395;BME280;10858;42.714;23.180;2023-02-26T05:01:19;92984.69;;;13.69;44.70
21395;BME280;10858;42.714;23.180;2023-02-26T05:03:45;92987.78;;;13.87;44.56
21395;BME280;10858;42.714;23.180;2023-02-26T05:06:11;92988.41;;;13.89;45.22
21395;BME280;10858;42.714;23.180;2023-02-26T05:08:38;92977.22;;;13.79;45.60
21395;BME280;10858;42.714;23.180;2023-02-26T05:11:10;92983.91;;;13.69;45.59
21395;BME280;10858;42.714;23.180;2023-02-26T05:13:37;92962.09;;;13.65;45.64
21395;BME280;10858;42.714;23.180;2023-02-26T05:16:04;92971.78;;;13.51;45.73
21395;BME280;10858;42.714;23.180;2023-02-26T05:18:31;92960.25;;;13.44;45.69
21395;BME280;10858;42.714;23.180;2023-02-26T05:20:57;92956.13;;;13.42;45.48
21395;BME280;10858;42.714;23.180;2023-02-26T05:23:24;92958.22;;;13.46;45.01
21395;BME280;10858;42.714;23.180;2023-02-26T05:25:50;92965.56;;;13.44;45.57
21395;BME280;10858;42.714;23.180;2023-02-26T05:28:19;92957.84;;;13.35;45.69
21395;BME280;10858;42.714;23.180;2023-02-26T05:30:45;92958.47;;;13.51;45.73
21395;BME280;10858;42.714;23.180;2023-02-26T05:33:11;92964.22;;;13.34;45.56
21395;BME280;10858;42.714;23.180;2023-02-26T05:35:37;92967.66;;;13.49;45.47
21395;BME280;10858;42.714;23.180;2023-02-26T05:38:04;92955.25;;;13.56;45.12
21395;BME280;10858;42.714;23.180;2023-02-26T05:40:30;92972.19;;;13.48;45.44
21395;BME280;10858;42.714;23.180;2023-02-26T05:42:56;92976.88;;;13.46;45.41
21395;BME280;10858;42.714;23.180;2023-02-26T05:45:22;92967.50;;;13.50;44.86
21395;BME280;10858;42.714;23.180;2023-02-26T05:47:48;92982.72;;;13.56;45.24
21395;BME280;10858;42.714;23.180;2023-02-26T05:50:15;92967.38;;;13.58;44.45
21395;BME280;10858;42.714;23.180;2023-02-26T05:52:41;92969.47;;;13.63;44.26
21395;BME280;10858;42.714;23.180;2023-02-26T05:55:08;92965.03;;;13.70;44.00
21395;BME280;10858;42.714;23.180;2023-02-26T05:57:37;92977.22;;;13.79;43.57
21395;BME280;10858;42.714;23.180;2023-02-26T06:00:05;92978.91;;;14.01;43.04
21395;BME280;10858;42.714;23.180;2023-02-26T06:02:32;92967.03;;;14.04;42.74
21395;BME280;10858;42.714;23.180;2023-02-26T06:04:58;92988.25;;;14.12;42.68
21395;BME280;10858;42.714;23.180;2023-02-26T06:07:24;92972.09;;;14.20;42.64
21395;BME280;10858;42.714;23.180;2023-02-26T06:09:50;92952.03;;;14.24;42.44
21395;BME280;10858;42.714;23.180;2023-02-26T06:12:16;92976.19;;;14.37;41.73
21395;BME280;10858;42.714;23.180;2023-02-26T06:14:43;92985.16;;;14.51;41.71
21395;BME280;10858;42.714;23.180;2023-02-26T06:17:09;92979.31;;;14.68;41.04
21395;BME280;10858;42.714;23.180;2023-02-26T06:19:35;92999.53;;;15.05;40.35
21395;BME280;10858;42.714;23.180;2023-02-26T06:22:02;92989.94;;;15.17;39.44
21395;BME280;10858;42.714;23.180;2023-02-26T06:24:28;92985.06;;;15.33;39.06
21395;BME280;10858;42.714;23.180;2023-02-26T06:26:54;92978.31;;;15.31;38.54
21395;BME280;10858;42.714;23.180;2023-02-26T06:29:21;92978.44;;;15.51;38.03
21395;BME280;10858;42.714;23.180;2023-02-26T06:31:48;92980.81;;;15.39;38.29
21395;BME280;10858;42.714;23.180;2023-02-26T06:34:14;92982.91;;;15.44;38.12
21395;BME280;10858;42.714;23.180;2023-02-26T06:36:41;92977.63;;;15.57;37.43
21395;BME280;10858;42.714;23.180;2023-02-26T06:39:07;92988.44;;;15.89;37.07
21395;BME280;10858;42.714;23.180;2023-02-26T06:41:34;92987.44;;;15.50;37.18
21395;BME280;10858;42.714;23.180;2023-02-26T06:44:00;92976.94;;;15.89;36.20
21395;BME280;10858;42.714;23.180;2023-02-26T06:46:26;92987.22;;;15.92;36.60
21395;BME280;10858;42.714;23.180;2023-02-26T06:48:52;92955.09;;;15.79;35.23
21395;BME280;10858;42.714;23.180;2023-02-26T06:51:19;92970.09;;;15.80;35.68
21395;BME280;10858;42.714;23.180;2023-02-26T06:53:45;92975.84;;;15.83;35.87
21395;BME280;10858;42.714;23.180;2023-02-26T06:56:11;92974.31;;;16.22;35.28
21395;BME280;10858;42.714;23.180;2023-02-26T06:58:37;92979.88;;;16.20;34.75
21395;BME280;10858;42.714;23.180;2023-02-26T07:01:04;92959.28;;;16.14;34.91
21395;BME280;10858;42.714;23.180;2023-02-26T07:03:30;92969.41;;;16.38;34.95
21395;BME280;10858;42.714;23.180;2023-02-26T07:05:56;92964.47;;;16.48;34.25
21395;BME280;10858;42.714;23.180;2023-02-26T07:08:23;92980.94;;;16.32;35.19
21395;BME280;10858;42.714;23.180;2023-02-26T07:10:49;93012.03;;;16.33;34.76
21395;BME280;10858;42.714;23.180;2023-02-26T07:13:16;93002.97;;;16.34;34.86
21395;BME280;10858;42.714;23.180;2023-02-26T07:15:42;92992.59;;;16.11;35.04
21395;BME280;10858;42.714;23.180;2023-02-26T07:18:08;92997.69;;;16.93;34.81
21395;BME280;10858;42.714;23.180;2023-02-26T07:20:34;92988.41;;;16.89;34.84
21395;BME280;10858;42.714;23.180;2023-02-26T07:23:01;92997.44;;;17.14;34.19
21395;BME280;10858;42.714;23.180;2023-02-26T07:25:27;93002.75;;;17.40;34.00
21395;BME280;10858;42.714;23.180;2023-02-26T07:27:54;92989.63;;;17.13;33.98
21395;BME280;10858;42.714;23.180;2023-02-26T07:30:21;93000.75;;;16.90;34.19
21395;BME280;10858;42.714;23.180;2023-02-26T07:32:47;92988.81;;;16.79;35.09
21395;BME280;10858;42.714;23.180;2023-02-26T07:35:13;92999.31;;;16.74;35.70
21395;BME280;10858;42.714;23.180;2023-02-26T07:37:39;93005.72;;;16.93;35.05
21395;BME280;10858;42.714;23.180;2023-02-26T07:40:06;92990.06;;;16.70;35.70
21395;BME280;10858;42.714;23.180;2023-02-26T07:42:32;92991.09;;;16.89;35.79
21395;BME280;10858;42.714;23.180;2023-02-26T07:44:58;93007.94;;;17.16;35.35
21395;BME280;10858;42.714;23.180;2023-02-26T07:47:25;93004.69;;;16.74;35.83
21395;BME280;10858;42.714;23.180;2023-02-26T07:49:52;93005.47;;;17.08;35.54
21395;BME280;10858;42.714;23.180;2023-02-26T07:52:18;93019.28;;;17.18;35.29
21395;BME280;10858;42.714;23.180;2023-02-26T07:54:44;92996.59;;;17.20;34.97
21395;BME280;10858;42.714;23.180;2023-02-26T07:57:10;93012.69;;;16.87;34.89
21395;BME280;10858;42.714;23.180;2023-02-26T07:59:36;93006.34;;;16.88;35.09
21395;BME280;10858;42.714;23.180;2023-02-26T08:02:03;93008.78;;;16.83;35.58
21395;BME280;10858;42.714;23.180;2023-02-26T08:04:29;93011.69;;;16.82;35.10
21395;BME280;10858;42.714;23.180;2023-02-26T08:06:59;92992.50;;;16.91;35.01
21395;BME280;10858;42.714;23.180;2023-02-26T08:09:26;92999.91;;;17.29;34.98
21395;BME280;10858;42.714;23.180;2023-02-26T08:11:52;92973.31;;;17.27;34.02
21395;BME280;10858;42.714;23.180;2023-02-26T08:14:18;92989.78;;;17.31;34.79
21395;BME280;10858;42.714;23.180;2023-02-26T08:16:44;92989.38;;;17.34;35.07
21395;BME280;10858;42.714;23.180;2023-02-26T08:19:11;92996.34;;;17.61;34.12
21395;BME280;10858;42.714;23.180;2023-02-26T08:21:37;92994.31;;;17.50;33.61
21395;BME280;10858;42.714;23.180;2023-02-26T08:24:03;93004.81;;;17.45;33.59
21395;BME280;10858;42.714;23.180;2023-02-26T08:26:30;93016.56;;;17.44;34.11
21395;BME280;10858;42.714;23.180;2023-02-26T08:28:56;93000.88;;;17.54;33.45
21395;BME280;10858;42.714;23.180;2023-02-26T08:31:22;92993.03;;;17.65;33.17
21395;BME280;10858;42.714;23.180;2023-02-26T08:33:49;93013.97;;;17.95;32.84
21395;BME280;10858;42.714;23.180;2023-02-26T08:36:15;93011.13;;;17.83;32.82
21395;BME280;10858;42.714;23.180;2023-02-26T08:38:41;93009.03;;;17.92;33.02
21395;BME280;10858;42.714;23.180;2023-02-26T08:41:07;93013.88;;;18.14;32.68
21395;BME280;10858;42.714;23.180;2023-02-26T08:43:34;92995.88;;;17.83;32.58
21395;BME280;10858;42.714;23.180;2023-02-26T08:46:00;92980.03;;;17.69;33.11
21395;BME280;10858;42.714;23.180;2023-02-26T08:48:26;93016.50;;;17.76;32.95
21395;BME280;10858;42.714;23.180;2023-02-26T08:50:52;93024.31;;;17.91;32.45
21395;BME280;10858;42.714;23.180;2023-02-26T08:53:18;93004.81;;;18.15;32.00
21395;BME280;10858;42.714;23.180;2023-02-26T08:55:48;93024.47;;;18.40;31.94
21395;BME280;10858;42.714;23.180;2023-02-26T08:58:14;93020.44;;;18.62;30.89
21395;BME280;10858;42.714;23.180;2023-02-26T09:00:40;93025.75;;;17.94;32.01
21395;BME280;10858;42.714;23.180;2023-02-26T09:03:06;93036.56;;;18.18;31.90
21395;BME280;10858;42.714;23.180;2023-02-26T09:05:33;93039.13;;;18.00;32.17
21395;BME280;10858;42.714;23.180;2023-02-26T09:07:59;93015.41;;;18.41;31.41
21395;BME280;10858;42.714;23.180;2023-02-26T09:10:25;93041.69;;;18.71;31.67
21395;BME280;10858;42.714;23.180;2023-02-26T09:12:51;93041.06;;;19.00;31.61
21395;BME280;10858;42.714;23.180;2023-02-26T09:15:17;93051.94;;;19.11;30.58
21395;BME280;10858;42.714;23.180;2023-02-26T09:17:44;93023.59;;;19.58;30.15
21395;BME280;10858;42.714;23.180;2023-02-26T09:20:12;93044.13;;;19.77;30.26
21395;BME280;10858;42.714;23.180;2023-02-26T09:22:39;93025.03;;;19.61;29.63
21395;BME280;10858;42.714;23.180;2023-02-26T09:25:05;93016.78;;;19.37;29.31
21395;BME280;10858;42.714;23.180;2023-02-26T09:27:33;93018.53;;;19.86;29.61
21395;BME280;10858;42.714;23.180;2023-02-26T09:30:00;93021.69;;;20.01;29.01
21395;BME280;10858;42.714;23.180;2023-02-26T09:32:27;93032.16;;;20.09;28.60
21395;BME280;10858;42.714;23.180;2023-02-26T09:34:53;93018.78;;;19.85;28.41
21395;BME280;10858;42.714;23.180;2023-02-26T09:37:19;93023.63;;;20.12;28.23
21395;BME280;10858;42.714;23.180;2023-02-26T09:39:45;93037.91;;;19.95;28.56
21395;BME280;10858;42.714;23.180;2023-02-26T09:44:56;93049.50;;;20.50;28.06
21395;BME280;10858;42.714;23.180;2023-02-26T09:47:37;93044.66;;;20.70;28.01
21395;BME280;10858;42.714;23.180;2023-02-26T09:50:22;93054.59;;;20.03;28.93
21395;BME280;10858;42.714;23.180;2023-02-26T09:53:06;93058.63;;;20.30;28.67
21395;BME280;10858;42.714;23.180;2023-02-26T09:55:41;93052.34;;;20.18;28.39
21395;BME280;10858;42.714;23.180;2023-02-26T09:58:34;93057.97;;;20.35;28.84
21395;BME280;10858;42.714;23.180;2023-02-26T10:01:26;93074.16;;;19.92;29.15
21395;BME280;10858;42.714;23.180;2023-02-26T10:04:33;93022.53;;;20.20;28.91
21395;BME280;10858;42.714;23.180;2023-02-26T10:07:11;93060.56;;;20.89;28.45
21395;BME280;10858;42.714;23.180;2023-02-26T10:12:25;93058.56;;;20.01;29.14
21395;BME280;10858;42.714;23.180;2023-02-26T10:18:07;93082.06;;;20.30;29.41
21395;BME280;10858;42.714;23.180;2023-02-26T10:21:08;93061.91;;;20.51;28.92
21395;BME280;10858;42.714;23.180;2023-02-26T10:23:56;93088.94;;;20.44;29.27
21395;BME280;10858;42.714;23.180;2023-02-26T10:32:05;93056.09;;;20.17;29.30
21395;BME280;10858;42.714;23.180;2023-02-26T10:37:33;93016.31;;;19.83;30.11
21395;BME280;10858;42.714;23.180;2023-02-26T10:40:12;93030.66;;;19.77;29.88
21395;BME280;10858;42.714;23.180;2023-02-26T10:42:45;93028.09;;;19.64;30.39
21395;BME280;10858;42.714;23.180;2023-02-26T10:50:36;93033.06;;;19.85;31.20
21395;BME280;10858;42.714;23.180;2023-02-26T10:53:04;93023.16;;;19.61;30.67
21395;BME280;10858;42.714;23.180;2023-02-26T10:58:17;93026.34;;;18.78;32.70
21395;BME280;10858;42.714;23.180;2023-02-26T11:00:47;93024.84;;;18.50;32.73
21395;BME280;10858;42.714;23.180;2023-02-26T11:03:27;93003.31;;;18.63;32.71
21395;BME280;10858;42.714;23.180;2023-02-26T11:05:54;93016.94;;;18.62;33.09
21395;BME280;10858;42.714;23.180;2023-02-26T11:08:34;93011.56;;;18.62;33.09
21395;BME280;10858;42.714;23.180;2023-02-26T11:11:04;92996.00;;;19.02;32.25
21395;BME280;10858;42.714;23.180;2023-02-26T11:13:32;93008.91;;;19.36;32.21
21395;BME280;10858;42.714;23.180;2023-02-26T11:16:12;93006.00;;;19.13;32.09
21395;BME280;10858;42.714;23.180;2023-02-26T11:18:43;93007.63;;;18.96;33.35
21395;BME280;10858;42.714;23.180;2023-02-26T11:21:17;92978.13;;;18.58;33.01
21395;BME280;10858;42.714;23.180;2023-02-26T11:23:45;92994.84;;;18.16;33.95
21395;BME280;10858;42.714;23.180;2023-02-26T11:26:19;92998.25;;;17.98;34.54
21395;BME280;10858;42.714;23.180;2023-02-26T11:28:54;93007.81;;;18.70;34.57
21395;BME280;10858;42.714;23.180;2023-02-26T11:31:22;92994.34;;;18.38;34.27
21395;BME280;10858;42.714;23.180;2023-02-26T11:33:59;92997.28;;;18.24;34.97
21395;BME280;10858;42.714;23.180;2023-02-26T11:36:30;92991.16;;;18.17;34.76
21395;BME280;10858;42.714;23.180;2023-02-26T11:39:01;93015.84;;;18.32;34.24
21395;BME280;10858;42.714;23.180;2023-02-26T11:41:30;93004.91;;;17.89;35.53
21395;BME280;10858;42.714;23.180;2023-02-26T11:44:14;92992.47;;;18.01;35.03
21395;BME280;10858;42.714;23.180;2023-02-26T11:46:52;92996.97;;;17.56;36.36
21395;BME280;10858;42.714;23.180;2023-02-26T11:49:23;92974.88;;;17.48;37.68
21395;BME280;10858;42.714;23.180;2023-02-26T11:52:03;92983.56;;;17.50;37.23
21395;BME280;10858;42.714;23.180;2023-02-26T11:54:34;92982.00;;;17.03;38.58
21395;BME280;10858;42.714;23.180;2023-02-26T11:57:04;92980.34;;;17.02;38.88
21395;BME280;10858;42.714;23.180;2023-02-26T11:59:32;92986.53;;;17.09;39.01
21395;BME280;10858;42.714;23.180;2023-02-26T12:02:09;92987.16;;;17.05;39.87
21395;BME280;10858;42.714;23.180;2023-02-26T12:04:39;92996.03;;;17.05;39.14
21395;BME280;10858;42.714;23.180;2023-02-26T12:07:11;92978.69;;;17.08;38.95
21395;BME280;10858;42.714;23.180;2023-02-26T12:09:38;93007.34;;;17.00;39.47
21395;BME280;10858;42.714;23.180;2023-02-26T12:26:44;93057.81;;;17.30;37.87
21395;BME280;10858;42.714;23.180;2023-02-26T12:29:40;93048.75;;;17.18;37.71
21395;BME280;10858;42.714;23.180;2023-02-26T12:32:30;93026.91;;;17.14;36.90
21395;BME280;10858;42.714;23.180;2023-02-26T12:41:08;93019.06;;;17.39;34.84
21395;BME280;10858;42.714;23.180;2023-02-26T12:43:51;93051.13;;;17.91;34.50
21395;BME280;10858;42.714;23.180;2023-02-26T12:46:30;93018.97;;;17.78;34.05
21395;BME280;10858;42.714;23.180;2023-02-26T12:54:28;93070.75;;;18.49;33.02
21395;BME280;10858;42.714;23.180;2023-02-26T12:57:18;93065.78;;;18.46;32.12
21395;BME280;10858;42.714;23.180;2023-02-26T12:59:52;93084.41;;;18.34;33.28
21395;BME280;10858;42.714;23.180;2023-02-26T13:05:32;93071.63;;;17.66;34.12
21395;BME280;10858;42.714;23.180;2023-02-26T13:08:27;93087.31;;;17.62;34.57
21395;BME280;10858;42.714;23.180;2023-02-26T13:19:36;93076.13;;;17.85;35.28
21395;BME280;10858;42.714;23.180;2023-02-26T13:24:45;93094.09;;;17.78;35.40
21395;BME280;10858;42.714;23.180;2023-02-26T13:27:13;93112.84;;;17.78;35.75
21395;BME280;10858;42.714;23.180;2023-02-26T13:29:57;93111.56;;;18.00;36.14
21395;BME280;10858;42.714;23.180;2023-02-26T13:32:26;93098.13;;;18.07;35.17
21395;BME280;10858;42.714;23.180;2023-02-26T13:35:04;93095.13;;;17.83;35.86
21395;BME280;10858;42.714;23.180;2023-02-26T13:37:46;93089.47;;;18.11;35.65
21395;BME280;10858;42.714;23.180;2023-02-26T13:48:30;93093.09;;;17.53;36.03
21395;BME280;10858;42.714;23.180;2023-02-26T13:55:54;93071.00;;;17.38;36.58
21395;BME280;10858;42.714;23.180;2023-02-26T13:58:28;93054.06;;;17.70;35.95
21395;BME280;10858;42.714;23.180;2023-02-26T14:01:13;93062.47;;;17.93;35.37
21395;BME280;10858;42.714;23.180;2023-02-26T14:06:41;93080.50;;;17.66;35.63
21395;BME280;10858;42.714;23.180;2023-02-26T14:12:03;93069.38;;;17.11;36.81
21395;BME280;10858;42.714;23.180;2023-02-26T14:19:41;93085.63;;;16.89;37.30
21395;BME280;10858;42.714;23.180;2023-02-26T14:22:23;93083.16;;;16.68;37.75
21395;BME280;10858;42.714;23.180;2023-02-26T14:27:43;93094.03;;;16.54;38.92
21395;BME280;10858;42.714;23.180;2023-02-26T14:35:34;93108.88;;;16.56;39.58
21395;BME280;10858;42.714;23.180;2023-02-26T14:38:09;93121.13;;;16.38;39.74
21395;BME280;10858;42.714;23.180;2023-02-26T14:40:48;93116.19;;;16.35;39.85
21395;BME280;10858;42.714;23.180;2023-02-26T14:43:35;93117.03;;;16.42;40.08
21395;BME280;10858;42.714;23.180;2023-02-26T14:46:04;93129.50;;;16.22;40.42
21395;BME280;10858;42.714;23.180;2023-02-26T14:48:32;93125.06;;;15.94;41.37
21395;BME280;10858;42.714;23.180;2023-02-26T14:54:09;93114.84;;;15.70;41.89
21395;BME280;10858;42.714;23.180;2023-02-26T15:05:28;93129.06;;;15.71;42.82
21395;BME280;10858;42.714;23.180;2023-02-26T15:13:26;93153.94;;;15.44;44.04
21395;BME280;10858;42.714;23.180;2023-02-26T15:19:22;93154.31;;;15.19;45.09
21395;BME280;10858;42.714;23.180;2023-02-26T15:24:29;93159.44;;;15.14;45.64
21395;BME280;10858;42.714;23.180;2023-02-26T15:27:04;93168.50;;;15.20;45.59
21395;BME280;10858;42.714;23.180;2023-02-26T15:29:36;93181.31;;;15.24;45.71
21395;BME280;10858;42.714;23.180;2023-02-26T15:32:24;93166.31;;;15.02;45.87
21395;BME280;10858;42.714;23.180;2023-02-26T15:35:16;93169.69;;;15.11;46.21
21395;BME280;10858;42.714;23.180;2023-02-26T15:37:46;93171.81;;;15.22;46.16
21395;BME280;10858;42.714;23.180;2023-02-26T15:40:14;93183.00;;;14.90;46.83
21395;BME280;10858;42.714;23.180;2023-02-26T15:42:42;93171.63;;;15.23;46.28
21395;BME280;10858;42.714;23.180;2023-02-26T15:45:40;93181.25;;;14.97;46.79
21395;BME280;10858;42.714;23.180;2023-02-26T15:48:16;93186.53;;;14.90;47.07
21395;BME280;10858;42.714;23.180;2023-02-26T15:50:46;93181.50;;;15.02;46.86
21395;BME280;10858;42.714;23.180;2023-02-26T15:55:56;93196.13;;;14.85;46.94
21395;BME280;10858;42.714;23.180;2023-02-26T15:58:42;93195.91;;;15.07;46.80
21395;BME280;10858;42.714;23.180;2023-02-26T16:01:24;93211.13;;;14.86;47.49
21395;BME280;10858;42.714;23.180;2023-02-26T16:03:55;93206.94;;;14.62;47.88
21395;BME280;10858;42.714;23.180;2023-02-26T16:06:39;93208.47;;;14.71;47.98
21395;BME280;10858;42.714;23.180;2023-02-26T16:09:14;93221.03;;;14.56;48.53